createdAt,value
2023-05-16T00:01:02.656Z,9.10
2023-05-16T00:02:10.219Z,9.10
2023-05-16T00:03:13.773Z,9.10
2023-05-16T00:04:21.817Z,9.10
2023-05-16T00:05:31.182Z,9.10
2023-05-16T00:06:36.271Z,9.10
2023-05-16T00:07:45.627Z,9.10
2023-05-16T00:08:53.228Z,9.10
2023-05-16T00:09:58.112Z,9.00
2023-05-16T00:11:02.969Z,9.00
2023-05-16T00:12:10.125Z,9.00
2023-05-16T00:13:14.659Z,9.00
2023-05-16T00:14:19.848Z,9.00
2023-05-16T00:15:25.189Z,9.00
2023-05-16T00:16:30.333Z,9.00
2023-05-16T00:17:35.778Z,8.90
2023-05-16T00:18:39.192Z,8.90
2023-05-16T00:19:47.574Z,8.90
2023-05-16T00:21:01.427Z,8.90
2023-05-16T00:22:11.543Z,8.90
2023-05-16T00:23:14.543Z,8.90
2023-05-16T00:24:22.182Z,8.90
2023-05-16T00:25:26.672Z,8.90
2023-05-16T00:26:33.807Z,8.90
2023-05-16T00:27:37.875Z,8.90
2023-05-16T00:28:44.837Z,8.80
2023-05-16T00:29:51.702Z,8.80
2023-05-16T00:30:58.897Z,8.80
2023-05-16T00:32:02.143Z,8.80
2023-05-16T00:33:07.036Z,8.80
2023-05-16T00:34:10.421Z,8.80
2023-05-16T00:35:14.721Z,8.80
2023-05-16T00:36:18.731Z,8.70
2023-05-16T00:37:26.491Z,8.70
2023-05-16T00:38:37.558Z,8.70
2023-05-16T00:39:44.525Z,8.70
2023-05-16T00:41:06.776Z,8.70
2023-05-16T00:42:19.485Z,8.70
2023-05-16T00:43:24.100Z,8.70
2023-05-16T00:44:27.443Z,8.60
2023-05-16T00:45:45.724Z,8.60
2023-05-16T00:46:51.970Z,8.60
2023-05-16T00:48:03.085Z,8.60
2023-05-16T00:49:10.914Z,8.60
2023-05-16T00:50:27.044Z,8.60
2023-05-16T00:51:32.696Z,8.60
2023-05-16T00:52:48.127Z,8.60
2023-05-16T00:53:59.346Z,8.60
2023-05-16T00:55:17.583Z,8.50
2023-05-16T00:56:32.961Z,8.50
2023-05-16T00:57:43.991Z,8.50
2023-05-16T00:58:56.391Z,8.50
2023-05-16T01:00:03.119Z,8.50
2023-05-16T01:01:11.259Z,8.50
2023-05-16T01:02:19.762Z,8.50
2023-05-16T01:03:32.175Z,8.50
2023-05-16T01:04:49.521Z,8.50
2023-05-16T01:06:01.040Z,8.40
2023-05-16T01:07:07.059Z,8.40
2023-05-16T01:08:21.130Z,8.40
2023-05-16T01:09:28.655Z,8.40
2023-05-16T01:11:00.309Z,8.40
2023-05-16T01:12:21.642Z,8.40
2023-05-16T01:13:34.259Z,8.40
2023-05-16T01:14:54.268Z,8.40
2023-05-16T01:16:19.462Z,8.40
2023-05-16T01:17:37.367Z,8.30
2023-05-16T01:18:57.583Z,8.30
2023-05-16T01:20:42.841Z,8.30
2023-05-16T01:22:07.381Z,8.30
2023-05-16T01:23:46.268Z,8.20
2023-05-16T01:25:24.189Z,8.20
2023-05-16T01:26:43.140Z,8.20
2023-05-16T01:27:49.370Z,8.20
2023-05-16T01:29:03.027Z,8.20
2023-05-16T01:30:29.621Z,8.10
2023-05-16T01:32:11.952Z,8.10
2023-05-16T01:33:19.142Z,8.10
2023-05-16T01:34:28.168Z,8.10
2023-05-16T01:35:48.193Z,8.00
2023-05-16T01:37:08.559Z,8.00
2023-05-16T01:38:27.218Z,8.00
2023-05-16T01:39:46.991Z,8.00
2023-05-16T01:41:15.988Z,8.00
2023-05-16T01:42:30.375Z,8.00
2023-05-16T01:43:45.689Z,7.90
2023-05-16T01:45:05.338Z,7.90
2023-05-16T01:46:18.675Z,7.90
2023-05-16T01:47:29.374Z,7.90
2023-05-16T01:49:22.089Z,7.90
2023-05-16T01:50:48.451Z,7.90
2023-05-16T01:52:02.230Z,7.90
2023-05-16T01:53:11.727Z,7.80
2023-05-16T01:54:21.388Z,7.80
2023-05-16T01:55:37.038Z,7.80
2023-05-16T01:56:43.099Z,7.80
2023-05-16T01:57:48.450Z,7.80
2023-05-16T01:59:34.101Z,7.80
2023-05-16T02:00:50.667Z,7.70
2023-05-16T02:02:04.022Z,7.70
2023-05-16T02:03:09.935Z,7.70
2023-05-16T02:04:18.146Z,7.70
2023-05-16T02:05:30.368Z,7.70
2023-05-16T02:06:43.268Z,7.70
2023-05-16T02:07:48.150Z,7.70
2023-05-16T02:08:52.877Z,7.60
2023-05-16T02:10:06.121Z,7.60
2023-05-16T02:11:12.796Z,7.60
2023-05-16T02:12:15.674Z,7.60
2023-05-16T02:13:23.990Z,7.60
2023-05-16T02:14:32.767Z,7.60
2023-05-16T02:15:40.290Z,7.60
2023-05-16T02:16:45.924Z,7.60
2023-05-16T02:17:52.177Z,7.50
2023-05-16T02:19:01.478Z,7.60
2023-05-16T02:20:14.766Z,7.50
2023-05-16T02:21:23.529Z,7.50
2023-05-16T02:22:30.032Z,7.50
2023-05-16T02:23:33.121Z,7.50
2023-05-16T02:24:40.851Z,7.50
2023-05-16T02:25:46.985Z,7.50
2023-05-16T02:27:02.352Z,7.50
2023-05-16T02:28:34.104Z,7.50
2023-05-16T02:29:49.463Z,7.40
2023-05-16T02:30:59.692Z,7.40
2023-05-16T02:32:06.886Z,7.50
2023-05-16T02:33:12.438Z,7.40
2023-05-16T02:34:16.012Z,7.40
2023-05-16T02:35:19.909Z,7.40
2023-05-16T02:36:23.590Z,7.40
2023-05-16T02:37:46.629Z,7.40
2023-05-16T02:38:58.947Z,7.40
2023-05-16T02:40:37.954Z,7.40
2023-05-16T02:41:50.355Z,7.40
2023-05-16T02:43:02.792Z,7.30
2023-05-16T02:44:13.780Z,7.30
2023-05-16T02:45:20.306Z,7.30
2023-05-16T02:46:35.469Z,7.30
2023-05-16T02:47:45.560Z,7.30
2023-05-16T02:48:53.109Z,7.30
2023-05-16T02:50:04.752Z,7.30
2023-05-16T02:51:14.711Z,7.30
2023-05-16T02:52:22.478Z,7.30
2023-05-16T02:53:30.917Z,7.30
2023-05-16T02:54:48.888Z,7.30
2023-05-16T02:56:12.311Z,7.30
2023-05-16T02:57:18.550Z,7.20
2023-05-16T02:58:26.540Z,7.20
2023-05-16T02:59:37.841Z,7.20
2023-05-16T03:00:45.773Z,7.20
2023-05-16T03:01:50.042Z,7.20
2023-05-16T03:03:04.399Z,7.20
2023-05-16T03:04:10.459Z,7.20
2023-05-16T03:05:19.712Z,7.20
2023-05-16T03:06:27.408Z,7.10
2023-05-16T03:07:36.528Z,7.10
2023-05-16T03:08:50.342Z,7.10
2023-05-16T03:10:01.686Z,7.10
2023-05-16T03:11:07.562Z,7.10
2023-05-16T03:12:37.668Z,7.10
2023-05-16T03:13:49.731Z,7.10
2023-05-16T03:15:13.434Z,7.10
2023-05-16T03:16:32.634Z,7.10
2023-05-16T03:17:54.992Z,7.10
2023-05-16T03:20:02.975Z,7.00
2023-05-16T03:22:13.519Z,7.00
2023-05-16T03:23:25.092Z,7.00
2023-05-16T03:24:29.463Z,7.00
2023-05-16T03:26:13.864Z,7.00
2023-05-16T03:27:21.615Z,7.00
2023-05-16T03:28:37.651Z,6.90
2023-05-16T03:29:47.234Z,6.90
2023-05-16T03:30:54.459Z,6.90
2023-05-16T03:32:00.601Z,6.90
2023-05-16T03:33:13.037Z,6.90
2023-05-16T03:34:18.426Z,6.90
2023-05-16T03:35:26.486Z,6.90
2023-05-16T03:36:31.926Z,6.90
2023-05-16T03:37:46.660Z,6.90
2023-05-16T03:38:57.052Z,6.90
2023-05-16T03:40:01.602Z,6.90
2023-05-16T03:41:11.872Z,6.80
2023-05-16T03:42:16.449Z,6.80
2023-05-16T03:43:24.869Z,6.80
2023-05-16T03:44:27.856Z,6.80
2023-05-16T03:45:37.939Z,6.80
2023-05-16T03:46:44.463Z,6.80
2023-05-16T03:47:55.466Z,6.80
2023-05-16T03:49:03.745Z,6.80
2023-05-16T03:50:30.960Z,6.80
2023-05-16T03:52:19.230Z,6.80
2023-05-16T03:53:29.371Z,6.80
2023-05-16T03:54:43.619Z,6.80
2023-05-16T03:55:54.692Z,6.80
2023-05-16T03:57:19.837Z,6.80
2023-05-16T04:02:33.816Z,6.80
2023-05-16T04:03:39.262Z,6.80
2023-05-16T04:04:44.560Z,6.80
2023-05-16T04:05:48.628Z,6.80
2023-05-16T04:06:53.947Z,6.80
2023-05-16T04:08:01.130Z,6.80
2023-05-16T04:09:11.848Z,6.80
2023-05-16T04:10:19.057Z,6.80
2023-05-16T04:11:36.835Z,6.80
2023-05-16T04:12:40.110Z,6.80
2023-05-16T04:14:12.012Z,6.90
2023-05-16T04:16:04.146Z,6.90
2023-05-16T04:18:20.845Z,6.90
2023-05-16T04:23:11.872Z,7.00
2023-05-16T04:24:45.633Z,7.10
2023-05-16T04:27:11.377Z,7.10
2023-05-16T04:28:47.292Z,7.20
2023-05-16T04:30:47.821Z,7.30
2023-05-16T04:31:55.013Z,7.30
2023-05-16T04:33:14.355Z,7.50
2023-05-16T04:36:15.833Z,7.60
2023-05-16T04:36:37.003Z,7.70
2023-05-16T04:37:56.534Z,7.80
2023-05-16T04:39:33.484Z,7.90
2023-05-16T04:41:10.153Z,8.10
2023-05-16T04:42:25.086Z,8.20
2023-05-16T04:43:38.236Z,8.30
2023-05-16T04:44:47.599Z,8.40
2023-05-16T04:46:10.607Z,8.50
2023-05-16T04:47:14.212Z,8.60
2023-05-16T04:48:23.674Z,8.70
2023-05-16T04:49:36.428Z,8.80
2023-05-16T04:55:05.096Z,9.10
2023-05-16T05:05:11.028Z,10.40
2023-05-16T05:08:57.929Z,10.90
2023-05-16T05:10:01.493Z,11.20
2023-05-16T05:11:06.880Z,11.40
2023-05-16T05:12:11.765Z,11.50
2023-05-16T05:13:19.342Z,11.70
2023-05-16T05:14:28.091Z,11.80
2023-05-16T05:15:34.351Z,12.00
2023-05-16T05:16:41.344Z,12.20
2023-05-16T05:17:46.401Z,12.40
2023-05-16T05:18:52.839Z,12.50
2023-05-16T05:19:57.668Z,12.70
2023-05-16T05:21:00.623Z,12.80
2023-05-16T05:22:04.531Z,13.00
2023-05-16T05:23:07.212Z,13.20
2023-05-16T05:24:11.510Z,13.40
2023-05-16T05:25:16.757Z,13.50
2023-05-16T05:26:22.610Z,13.70
2023-05-16T05:27:27.709Z,13.90
2023-05-16T05:28:32.967Z,14.10
2023-05-16T05:29:39.865Z,14.20
2023-05-16T05:30:44.736Z,14.40
2023-05-16T05:31:48.800Z,14.60
2023-05-16T05:32:53.557Z,14.80
2023-05-16T05:33:58.443Z,15.00
2023-05-16T05:35:03.835Z,15.10
2023-05-16T05:36:08.812Z,15.30
2023-05-16T05:37:12.878Z,15.50
2023-05-16T05:38:16.332Z,15.70
2023-05-16T05:39:21.209Z,15.80
2023-05-16T05:40:24.102Z,16.00
2023-05-16T05:41:28.338Z,16.20
2023-05-16T05:42:33.022Z,16.30
2023-05-16T05:43:36.876Z,16.50
2023-05-16T05:44:41.101Z,16.60
2023-05-16T05:45:45.569Z,16.80
2023-05-16T05:46:48.318Z,17.00
2023-05-16T05:47:52.277Z,17.10
2023-05-16T05:48:56.205Z,17.30
2023-05-16T05:50:00.961Z,17.50
2023-05-16T05:51:04.869Z,17.60
2023-05-16T05:52:09.042Z,17.70
2023-05-16T05:53:12.255Z,17.90
2023-05-16T05:54:17.534Z,18.10
2023-05-16T05:55:20.625Z,18.20
2023-05-16T05:56:24.858Z,18.40
2023-05-16T05:57:28.717Z,18.50
2023-05-16T05:58:32.775Z,18.60
2023-05-16T05:59:36.652Z,18.80
2023-05-16T06:00:42.935Z,18.90
2023-05-16T06:01:45.922Z,19.00
2023-05-16T06:02:50.280Z,19.10
2023-05-16T06:03:53.236Z,19.10
2023-05-16T06:04:59.397Z,19.00
2023-05-16T06:06:02.392Z,19.00
2023-05-16T06:07:06.642Z,18.90
2023-05-16T06:08:09.726Z,18.80
2023-05-16T06:09:15.096Z,18.70
2023-05-16T06:10:17.874Z,18.60
2023-05-16T06:11:21.727Z,18.40
2023-05-16T06:12:24.662Z,18.30
2023-05-16T06:13:28.466Z,18.10
2023-05-16T06:14:31.235Z,18.00
2023-05-16T06:15:37.133Z,18.00
2023-05-16T06:16:42.791Z,18.00
2023-05-16T06:17:46.996Z,18.10
2023-05-16T06:18:50.137Z,18.20
2023-05-16T06:19:55.021Z,18.30
2023-05-16T06:20:58.053Z,18.50
2023-05-16T06:22:02.101Z,18.70
2023-05-16T06:23:05.300Z,18.80
2023-05-16T06:24:12.330Z,19.00
2023-05-16T06:25:15.076Z,19.20
2023-05-16T06:26:20.559Z,19.40
2023-05-16T06:27:23.788Z,19.50
2023-05-16T06:28:28.062Z,19.70
2023-05-16T06:29:31.100Z,19.90
2023-05-16T06:30:35.108Z,20.10
2023-05-16T06:31:38.799Z,20.30
2023-05-16T06:32:43.048Z,20.50
2023-05-16T06:33:46.615Z,20.70
2023-05-16T06:34:52.115Z,20.80
2023-05-16T06:35:57.047Z,20.90
2023-05-16T06:37:00.104Z,21.10
2023-05-16T06:38:05.141Z,21.20
2023-05-16T06:39:08.908Z,21.20
2023-05-16T06:40:14.842Z,21.20
2023-05-16T06:41:19.486Z,21.30
2023-05-16T06:42:22.362Z,21.30
2023-05-16T06:43:27.748Z,21.40
2023-05-16T06:44:30.722Z,21.50
2023-05-16T06:45:34.562Z,21.50
2023-05-16T06:46:38.529Z,21.60
2023-05-16T06:47:44.130Z,21.60
2023-05-16T06:48:49.097Z,21.70
2023-05-16T06:49:53.340Z,21.90
2023-05-16T06:51:00.095Z,21.90
2023-05-16T06:52:04.085Z,21.90
2023-05-16T06:53:11.546Z,21.90
2023-05-16T06:54:15.348Z,22.00
2023-05-16T06:55:19.256Z,22.00
2023-05-16T06:56:22.768Z,22.10
2023-05-16T06:57:28.169Z,22.20
2023-05-16T06:58:33.092Z,22.30
2023-05-16T06:59:36.131Z,22.30
2023-05-16T07:00:40.189Z,22.40
2023-05-16T07:01:43.951Z,22.50
2023-05-16T07:02:48.089Z,22.60
2023-05-16T07:03:52.819Z,22.70
2023-05-16T07:04:57.764Z,22.70
2023-05-16T07:06:03.081Z,22.90
2023-05-16T07:07:08.313Z,23.00
2023-05-16T07:08:12.417Z,23.10
2023-05-16T07:09:15.422Z,23.20
2023-05-16T07:10:19.200Z,23.10
2023-05-16T07:11:23.665Z,23.00
2023-05-16T07:12:29.434Z,22.80
2023-05-16T07:13:35.990Z,22.50
2023-05-16T07:14:38.995Z,22.30
2023-05-16T07:15:43.270Z,22.10
2023-05-16T07:16:46.980Z,22.10
2023-05-16T07:17:53.361Z,22.10
2023-05-16T07:18:56.224Z,22.20
2023-05-16T07:20:05.048Z,22.30
2023-05-16T07:21:09.533Z,22.50
2023-05-16T07:22:13.404Z,22.50
2023-05-16T07:23:17.499Z,22.50
2023-05-16T07:24:20.648Z,22.50
2023-05-16T07:25:25.663Z,22.40
2023-05-16T07:26:29.623Z,22.20
2023-05-16T07:27:33.385Z,22.10
2023-05-16T07:28:36.199Z,21.80
2023-05-16T07:29:41.424Z,21.60
2023-05-16T07:30:44.407Z,21.40
2023-05-16T07:31:49.894Z,21.40
2023-05-16T07:32:55.036Z,21.40
2023-05-16T07:33:57.761Z,21.60
2023-05-16T07:35:02.359Z,21.90
2023-05-16T07:36:16.296Z,22.20
2023-05-16T07:37:24.368Z,22.50
2023-05-16T07:38:27.378Z,23.00
2023-05-16T07:39:31.169Z,23.40
2023-05-16T07:40:35.189Z,23.80
2023-05-16T07:41:37.766Z,24.20
2023-05-16T07:42:41.698Z,24.50
2023-05-16T07:43:45.793Z,24.60
2023-05-16T07:44:50.056Z,24.60
2023-05-16T07:45:55.267Z,24.60
2023-05-16T07:46:58.931Z,24.70
2023-05-16T07:48:04.347Z,24.60
2023-05-16T07:49:07.317Z,24.60
2023-05-16T07:50:12.542Z,24.60
2023-05-16T07:51:17.070Z,24.60
2023-05-16T07:52:21.348Z,24.70
2023-05-16T07:53:24.453Z,24.80
2023-05-16T07:54:29.281Z,24.80
2023-05-16T07:55:31.933Z,24.80
2023-05-16T07:56:36.653Z,24.70
2023-05-16T07:57:40.585Z,24.60
2023-05-16T07:58:44.159Z,24.50
2023-05-16T07:59:48.232Z,24.50
2023-05-16T08:00:51.535Z,24.60
2023-05-16T08:01:57.634Z,24.80
2023-05-16T08:03:03.445Z,24.90
2023-05-16T08:04:06.391Z,25.00
2023-05-16T08:05:12.290Z,25.10
2023-05-16T08:07:26.090Z,25.60
2023-05-16T08:08:33.056Z,25.80
2023-05-16T08:09:37.188Z,26.10
2023-05-16T08:11:47.828Z,26.80
2023-05-16T08:12:53.150Z,27.00
2023-05-16T08:13:57.274Z,27.20
2023-05-16T08:15:02.158Z,27.20
2023-05-16T08:16:07.964Z,27.20
2023-05-16T08:17:10.917Z,27.20
2023-05-16T08:18:16.802Z,27.20
2023-05-16T08:19:19.689Z,27.20
2023-05-16T08:21:28.466Z,27.50
2023-05-16T08:22:37.555Z,27.80
2023-05-16T08:23:40.911Z,27.90
2023-05-16T08:24:46.069Z,27.90
2023-05-16T08:25:50.308Z,27.90
2023-05-16T08:26:54.357Z,27.80
2023-05-16T08:27:59.172Z,27.70
2023-05-16T08:29:05.208Z,27.60
2023-05-16T08:30:12.203Z,27.30
2023-05-16T08:31:16.623Z,27.00
2023-05-16T08:32:20.302Z,26.80
2023-05-16T08:33:25.462Z,26.80
2023-05-16T08:34:32.328Z,26.80
2023-05-16T08:35:37.205Z,27.00
2023-05-16T08:36:42.741Z,27.10
2023-05-16T08:37:46.736Z,27.20
2023-05-16T08:38:50.945Z,27.30
2023-05-16T08:39:55.068Z,27.60
2023-05-16T08:42:02.603Z,28.10
2023-05-16T08:43:06.594Z,28.40
2023-05-16T08:44:13.194Z,28.70
2023-05-16T08:45:16.085Z,29.00
2023-05-16T08:46:26.943Z,29.40
2023-05-16T08:47:33.285Z,29.60
2023-05-16T08:48:47.342Z,29.80
2023-05-16T08:49:58.979Z,29.80
2023-05-16T08:51:04.052Z,29.70
2023-05-16T08:52:11.450Z,29.80
2023-05-16T08:53:24.699Z,29.90
2023-05-16T08:54:31.170Z,30.00
2023-05-16T08:55:36.558Z,30.20
2023-05-16T08:56:41.444Z,30.40
2023-05-16T08:57:45.604Z,30.60
2023-05-16T08:58:49.221Z,30.80
2023-05-16T08:59:55.799Z,31.00
2023-05-16T09:01:03.836Z,31.10
2023-05-16T09:02:08.290Z,31.20
2023-05-16T09:03:12.498Z,31.20
2023-05-16T09:04:19.166Z,31.10
2023-05-16T09:05:26.253Z,31.00
2023-05-16T09:06:31.511Z,30.90
2023-05-16T09:07:34.258Z,30.80
2023-05-16T09:08:37.931Z,30.90
2023-05-16T09:09:43.730Z,30.90
2023-05-16T09:10:47.614Z,31.00
2023-05-16T09:11:50.411Z,31.20
2023-05-16T09:12:54.455Z,31.30
2023-05-16T09:13:59.192Z,31.30
2023-05-16T09:15:05.065Z,31.10
2023-05-16T09:16:16.900Z,30.80
2023-05-16T09:17:35.967Z,30.40
2023-05-16T09:19:01.399Z,29.90
2023-05-16T09:20:29.780Z,29.40
2023-05-16T09:21:37.750Z,29.10
2023-05-16T09:23:00.725Z,28.90
2023-05-16T09:24:10.762Z,28.90
2023-05-16T09:25:29.493Z,28.90
2023-05-16T09:26:37.045Z,29.00
2023-05-16T09:27:48.949Z,28.90
2023-05-16T09:28:59.165Z,28.80
2023-05-16T09:30:08.301Z,28.50
2023-05-16T09:31:39.193Z,28.20
2023-05-16T09:32:48.235Z,27.70
2023-05-16T09:33:56.292Z,27.50
2023-05-16T09:35:08.583Z,27.40
2023-05-16T09:36:26.000Z,27.50
2023-05-16T09:37:33.922Z,27.70
2023-05-16T09:38:40.333Z,27.90
2023-05-16T09:39:53.865Z,28.20
2023-05-16T09:40:58.480Z,28.20
2023-05-16T09:42:08.898Z,28.40
2023-05-16T09:43:27.323Z,28.50
2023-05-16T09:44:38.740Z,28.70
2023-05-16T09:45:57.318Z,28.90
2023-05-16T09:47:04.854Z,29.20
2023-05-16T09:48:15.520Z,29.50
2023-05-16T09:49:23.237Z,29.70
2023-05-16T09:50:28.728Z,29.90
2023-05-16T09:51:36.918Z,30.00
2023-05-16T09:52:45.562Z,30.00
2023-05-16T09:53:58.644Z,29.90
2023-05-16T09:55:12.574Z,29.80
2023-05-16T09:56:21.823Z,29.60
2023-05-16T09:57:27.494Z,29.60
2023-05-16T09:58:36.533Z,29.60
2023-05-16T09:59:42.696Z,29.50
2023-05-16T10:01:05.275Z,29.30
2023-05-16T10:02:23.771Z,29.10
2023-05-16T10:03:35.227Z,28.90
2023-05-16T10:04:52.216Z,28.70
2023-05-16T10:06:05.435Z,28.50
2023-05-16T10:07:15.284Z,28.10
2023-05-16T10:08:26.007Z,27.80
2023-05-16T10:09:46.944Z,27.60
2023-05-16T10:10:58.104Z,27.50
2023-05-16T10:12:11.274Z,27.40
2023-05-16T10:13:24.288Z,27.50
2023-05-16T10:14:33.434Z,27.70
2023-05-16T10:16:00.336Z,27.80
2023-05-16T10:17:13.048Z,27.80
2023-05-16T10:18:26.688Z,27.70
2023-05-16T10:19:42.580Z,27.70
2023-05-16T10:20:58.276Z,27.70
2023-05-16T10:22:16.564Z,27.90
2023-05-16T10:23:31.360Z,27.90
2023-05-16T10:24:47.027Z,27.90
2023-05-16T10:26:00.752Z,27.90
2023-05-16T10:27:09.928Z,28.00
2023-05-16T10:28:22.990Z,28.10
2023-05-16T10:29:54.385Z,28.10
2023-05-16T10:31:07.287Z,28.10
2023-05-16T10:32:14.676Z,28.00
2023-05-16T10:33:21.313Z,27.80
2023-05-16T10:34:28.986Z,27.70
2023-05-16T10:35:35.575Z,27.40
2023-05-16T10:36:49.818Z,27.20
2023-05-16T10:37:56.498Z,26.90
2023-05-16T10:39:04.175Z,26.70
2023-05-16T10:40:10.366Z,26.40
2023-05-16T10:41:18.179Z,26.20
2023-05-16T10:42:25.346Z,25.90
2023-05-16T10:43:33.722Z,25.80
2023-05-16T10:44:42.764Z,25.70
2023-05-16T10:45:58.222Z,25.70
2023-05-16T10:47:04.740Z,25.80
2023-05-16T10:48:13.872Z,26.00
2023-05-16T10:49:30.869Z,26.20
2023-05-16T10:50:43.366Z,26.40
2023-05-16T10:52:07.440Z,26.70
2023-05-16T10:53:24.446Z,26.90
2023-05-16T10:54:40.694Z,27.00
2023-05-16T10:55:52.228Z,27.10
2023-05-16T10:57:06.049Z,27.30
2023-05-16T10:58:13.762Z,27.50
2023-05-16T10:59:31.270Z,27.70
2023-05-16T11:00:42.314Z,27.80
2023-05-16T11:01:59.796Z,28.00
2023-05-16T11:03:25.665Z,28.10
2023-05-16T11:04:50.507Z,28.30
2023-05-16T11:06:01.930Z,28.50
2023-05-16T11:07:11.503Z,28.60
2023-05-16T11:08:19.937Z,28.80
2023-05-16T11:09:32.391Z,29.00
2023-05-16T11:10:40.105Z,29.20
2023-05-16T11:11:51.374Z,29.50
2023-05-16T11:12:57.883Z,29.60
2023-05-16T11:14:08.508Z,29.90
2023-05-16T11:15:25.682Z,30.00
2023-05-16T11:16:32.542Z,30.20
2023-05-16T11:17:44.783Z,30.40
2023-05-16T11:18:58.957Z,30.40
2023-05-16T11:20:04.617Z,30.40
2023-05-16T11:21:18.042Z,30.30
2023-05-16T11:22:31.391Z,30.10
2023-05-16T11:23:37.538Z,29.80
2023-05-16T11:24:53.211Z,29.60
2023-05-16T11:26:02.851Z,29.30
2023-05-16T11:27:13.839Z,29.00
2023-05-16T11:28:24.899Z,28.70
2023-05-16T11:29:59.183Z,28.40
2023-05-16T11:31:08.879Z,28.20
2023-05-16T11:32:19.617Z,28.00
2023-05-16T11:33:28.917Z,27.80
2023-05-16T11:34:39.263Z,27.70
2023-05-16T11:35:44.388Z,27.50
2023-05-16T11:36:56.638Z,27.30
2023-05-16T11:38:01.632Z,27.20
2023-05-16T11:39:15.311Z,27.00
2023-05-16T11:40:28.499Z,26.90
2023-05-16T11:41:37.984Z,26.80
2023-05-16T11:42:46.818Z,26.70
2023-05-16T11:43:54.525Z,26.60
2023-05-16T11:45:14.079Z,26.60
2023-05-16T11:46:20.507Z,26.50
2023-05-16T11:47:30.120Z,26.50
2023-05-16T11:48:36.840Z,26.40
2023-05-16T11:49:41.762Z,26.30
2023-05-16T11:50:53.809Z,26.20
2023-05-16T11:52:16.313Z,26.10
2023-05-16T11:53:19.783Z,26.10
2023-05-16T11:54:24.346Z,26.00
2023-05-16T11:55:41.221Z,26.00
2023-05-16T11:56:49.387Z,25.90
2023-05-16T11:57:54.082Z,25.80
2023-05-16T11:58:59.537Z,25.70
2023-05-16T12:00:08.205Z,25.60
2023-05-16T12:01:13.261Z,25.50
2023-05-16T12:02:17.465Z,25.40
2023-05-16T12:03:21.212Z,25.40
2023-05-16T12:04:25.840Z,25.40
2023-05-16T12:05:32.242Z,25.40
2023-05-16T12:06:36.704Z,25.40
2023-05-16T12:07:42.929Z,25.40
2023-05-16T12:08:52.652Z,25.40
2023-05-16T12:09:56.703Z,25.60
2023-05-16T12:11:01.826Z,25.70
2023-05-16T12:12:09.093Z,25.80
2023-05-16T12:13:13.640Z,25.80
2023-05-16T12:14:17.859Z,25.90
2023-05-16T12:15:22.456Z,25.80
2023-05-16T12:16:25.833Z,25.70
2023-05-16T12:17:29.903Z,25.60
2023-05-16T12:18:34.094Z,25.50
2023-05-16T12:19:38.593Z,25.40
2023-05-16T12:20:43.279Z,25.20
2023-05-16T12:21:49.553Z,25.10
2023-05-16T12:22:55.082Z,25.00
2023-05-16T12:24:00.034Z,25.00
2023-05-16T12:25:27.517Z,25.00
2023-05-16T12:26:33.962Z,25.00
2023-05-16T12:27:45.473Z,25.10
2023-05-16T12:28:57.557Z,25.10
2023-05-16T12:30:00.934Z,25.20
2023-05-16T12:31:05.748Z,25.40
2023-05-16T12:32:13.997Z,25.50
2023-05-16T12:33:22.002Z,25.60
2023-05-16T12:34:30.061Z,25.80
2023-05-16T12:35:36.268Z,25.90
2023-05-16T12:36:39.677Z,26.10
2023-05-16T12:37:46.354Z,26.20
2023-05-16T12:38:53.192Z,26.40
2023-05-16T12:40:04.422Z,26.50
2023-05-16T12:41:08.982Z,26.70
2023-05-16T12:42:14.445Z,26.80
2023-05-16T12:43:22.166Z,27.00
2023-05-16T12:44:31.691Z,27.20
2023-05-16T12:45:35.568Z,27.40
2023-05-16T12:46:44.300Z,27.50
2023-05-16T12:47:48.843Z,27.60
2023-05-16T12:49:06.919Z,27.60
2023-05-16T12:50:14.792Z,27.60
2023-05-16T12:51:22.314Z,27.50
2023-05-16T12:52:25.665Z,27.40
2023-05-16T12:53:29.805Z,27.20
2023-05-16T12:54:35.945Z,27.10
2023-05-16T12:55:38.900Z,27.00
2023-05-16T12:56:44.315Z,26.90
2023-05-16T12:57:50.027Z,26.90
2023-05-16T12:58:54.282Z,26.90
2023-05-16T13:00:01.997Z,26.90
2023-05-16T13:01:06.721Z,26.80
2023-05-16T13:02:11.135Z,26.80
2023-05-16T13:03:15.684Z,26.70
2023-05-16T13:04:20.696Z,26.60
2023-05-16T13:05:25.041Z,26.60
2023-05-16T13:06:34.601Z,26.60
2023-05-16T13:07:44.587Z,26.50
2023-05-16T13:08:48.240Z,26.40
2023-05-16T13:09:54.295Z,26.30
2023-05-16T13:10:57.199Z,26.10
2023-05-16T13:12:01.706Z,26.00
2023-05-16T13:13:05.966Z,25.80
2023-05-16T13:14:10.176Z,25.70
2023-05-16T13:15:14.181Z,25.60
2023-05-16T13:16:18.718Z,25.40
2023-05-16T13:17:23.826Z,25.30
2023-05-16T13:18:27.458Z,25.20
2023-05-16T13:19:32.758Z,25.10
2023-05-16T13:20:35.748Z,25.00
2023-05-16T13:21:40.103Z,25.00
2023-05-16T13:22:46.672Z,24.90
2023-05-16T13:23:51.374Z,24.80
2023-05-16T13:24:58.483Z,24.70
2023-05-16T13:26:02.907Z,24.70
2023-05-16T13:27:07.909Z,24.60
2023-05-16T13:28:12.129Z,24.50
2023-05-16T13:29:16.520Z,24.40
2023-05-16T13:30:20.404Z,24.30
2023-05-16T13:31:23.807Z,24.30
2023-05-16T13:32:28.339Z,24.20
2023-05-16T13:33:31.671Z,24.10
2023-05-16T13:34:36.429Z,24.00
2023-05-16T13:35:41.933Z,23.90
2023-05-16T13:37:53.844Z,23.70
2023-05-16T13:38:57.054Z,23.60
2023-05-16T13:40:02.796Z,23.50
2023-05-16T13:41:07.290Z,23.50
2023-05-16T13:42:10.558Z,23.40
2023-05-16T13:43:15.809Z,23.40
2023-05-16T13:44:20.036Z,23.40
2023-05-16T13:45:24.577Z,23.30
2023-05-16T13:46:27.789Z,23.30
2023-05-16T13:47:32.902Z,23.30
2023-05-16T13:48:39.554Z,23.30
2023-05-16T13:49:45.179Z,23.20
2023-05-16T13:50:49.150Z,23.20
2023-05-16T13:51:52.287Z,23.20
2023-05-16T13:52:56.397Z,23.20
2023-05-16T13:54:01.929Z,23.20
2023-05-16T13:55:09.890Z,23.20
2023-05-16T13:56:13.045Z,23.10
2023-05-16T13:57:17.758Z,23.10
2023-05-16T13:59:44.990Z,23.00
2023-05-16T14:00:52.061Z,23.00
2023-05-16T14:02:01.889Z,22.90
2023-05-16T14:03:04.899Z,22.90
2023-05-16T14:04:09.148Z,22.80
2023-05-16T14:05:15.671Z,22.70
2023-05-16T14:06:20.078Z,22.70
2023-05-16T14:07:22.952Z,22.60
2023-05-16T14:08:27.051Z,22.50
2023-05-16T14:09:29.874Z,22.50
2023-05-16T14:10:35.412Z,22.40
2023-05-16T14:11:38.420Z,22.30
2023-05-16T14:12:42.336Z,22.30
2023-05-16T14:13:46.421Z,22.20
2023-05-16T14:14:50.389Z,22.20
2023-05-16T14:15:54.435Z,22.20
2023-05-16T14:16:57.326Z,22.10
2023-05-16T14:18:01.496Z,22.10
2023-05-16T14:19:04.658Z,22.10
2023-05-16T14:20:10.919Z,22.00
2023-05-16T14:21:15.060Z,22.00
2023-05-16T14:22:20.182Z,22.00
2023-05-16T14:23:24.360Z,22.00
2023-05-16T14:24:27.817Z,22.00
2023-05-16T14:25:31.873Z,22.00
2023-05-16T14:26:36.225Z,22.00
2023-05-16T14:27:40.095Z,22.00
2023-05-16T14:28:48.982Z,22.00
2023-05-16T14:29:53.151Z,22.10
2023-05-16T14:30:56.191Z,22.10
2023-05-16T14:32:00.402Z,22.10
2023-05-16T14:33:03.836Z,22.10
2023-05-16T14:34:07.973Z,22.10
2023-05-16T14:35:12.660Z,22.10
2023-05-16T14:36:15.568Z,22.20
2023-05-16T14:37:22.033Z,22.20
2023-05-16T14:38:25.281Z,22.20
2023-05-16T14:39:29.424Z,22.30
2023-05-16T14:40:33.471Z,22.30
2023-05-16T14:41:37.953Z,22.30
2023-05-16T14:42:42.056Z,22.20
2023-05-16T14:43:45.732Z,22.20
2023-05-16T14:44:50.025Z,22.20
2023-05-16T14:45:53.651Z,22.10
2023-05-16T14:47:06.408Z,22.10
2023-05-16T14:48:17.343Z,22.00
2023-05-16T14:49:21.349Z,22.00
2023-05-16T14:50:27.308Z,21.90
2023-05-16T14:51:32.528Z,21.80
2023-05-16T14:52:53.365Z,21.80
2023-05-16T14:54:01.110Z,21.80
2023-05-16T14:55:06.424Z,21.80
2023-05-16T14:56:10.279Z,21.70
2023-05-16T14:57:20.012Z,21.70
2023-05-16T14:58:22.957Z,21.70
2023-05-16T14:59:32.084Z,21.70
2023-05-16T15:00:35.877Z,21.60
2023-05-16T15:01:39.899Z,21.60
2023-05-16T15:02:42.763Z,21.60
2023-05-16T15:03:55.329Z,21.70
2023-05-16T15:04:59.789Z,21.70
2023-05-16T15:06:08.253Z,21.70
2023-05-16T15:07:11.490Z,21.70
2023-05-16T15:08:15.973Z,21.70
2023-05-16T15:09:19.346Z,21.70
2023-05-16T15:10:23.649Z,21.70
2023-05-16T15:11:28.031Z,21.70
2023-05-16T15:12:32.708Z,21.70
2023-05-16T15:13:38.372Z,21.70
2023-05-16T15:14:55.097Z,21.70
2023-05-16T15:15:58.790Z,21.80
2023-05-16T15:17:05.368Z,21.80
2023-05-16T15:18:14.579Z,21.80
2023-05-16T15:19:17.935Z,21.80
2023-05-16T15:20:26.484Z,21.80
2023-05-16T15:21:32.842Z,21.80
2023-05-16T15:22:37.249Z,21.80
2023-05-16T15:23:40.755Z,21.80
2023-05-16T15:25:35.420Z,21.70
2023-05-16T15:26:41.200Z,21.70
2023-05-16T15:27:49.687Z,21.70
2023-05-16T15:29:25.212Z,21.70
2023-05-16T15:30:29.175Z,21.70
2023-05-16T15:31:32.713Z,21.70